createdAt,value
2018-02-16T00:01:59.172Z,75.20
2018-02-16T00:04:27.462Z,81.43
2018-02-16T00:06:55.209Z,77.00
2018-02-16T00:09:22.803Z,70.57
2018-02-16T00:11:50.344Z,72.80
2018-02-16T00:14:20.233Z,68.23
2018-02-16T00:16:48.830Z,70.27
2018-02-16T00:19:25.153Z,58.97
2018-02-16T00:21:54.689Z,69.45
2018-02-16T00:24:26.837Z,66.10
2018-02-16T00:26:55.416Z,70.25
2018-02-16T00:29:25.571Z,65.70
2018-02-16T00:31:55.139Z,70.42
2018-02-16T00:34:23.628Z,65.10
2018-02-16T00:36:51.217Z,71.33
2018-02-16T00:39:20.296Z,65.77
2018-02-16T00:41:48.748Z,64.23
2018-02-16T00:44:16.349Z,72.00
2018-02-16T00:46:44.032Z,67.20
2018-02-16T00:49:12.852Z,64.25
2018-02-16T00:51:40.601Z,68.93
2018-02-16T00:54:08.597Z,59.33
2018-02-16T00:56:37.979Z,65.17
2018-02-16T00:59:05.528Z,76.50
2018-02-16T01:01:33.702Z,68.90
2018-02-16T01:04:01.444Z,72.07
2018-02-16T01:06:29.151Z,66.73
2018-02-16T01:08:57.553Z,70.30
2018-02-16T01:11:26.633Z,69.33
2018-02-16T01:13:54.760Z,71.23
2018-02-16T01:16:22.716Z,66.27
2018-02-16T01:18:50.575Z,64.60
2018-02-16T01:21:18.861Z,68.73
2018-02-16T01:23:47.261Z,66.63
2018-02-16T01:26:17.429Z,64.77
2018-02-16T01:28:45.601Z,78.03
2018-02-16T01:31:13.813Z,74.03
2018-02-16T01:33:42.298Z,72.67
2018-02-16T01:36:13.375Z,77.23
2018-02-16T01:38:42.953Z,72.97
2018-02-16T01:41:11.972Z,70.47
2018-02-16T01:43:39.537Z,60.37
2018-02-16T01:46:07.920Z,81.93
2018-02-16T01:48:35.918Z,76.10
2018-02-16T01:51:04.849Z,88.97
2018-02-16T01:53:33.305Z,76.10
2018-02-16T01:56:00.925Z,80.57
2018-02-16T01:58:29.840Z,72.97
2018-02-16T02:00:57.488Z,155.67
2018-02-16T02:03:27.148Z,98.27
2018-02-16T02:05:57.444Z,77.57
2018-02-16T02:08:25.565Z,77.10
2018-02-16T02:10:53.150Z,81.57
2018-02-16T02:13:21.154Z,112.78
2018-02-16T02:15:51.748Z,123.05
2018-02-16T02:18:20.599Z,166.53
2018-02-16T02:20:49.998Z,109.93
2018-02-16T02:23:18.566Z,111.37
2018-02-16T02:25:46.939Z,150.98
2018-02-16T02:28:14.958Z,161.17
2018-02-16T02:30:44.783Z,138.20
2018-02-16T02:33:13.740Z,234.60
2018-02-16T02:35:42.222Z,205.65
2018-02-16T02:38:10.995Z,126.78
2018-02-16T02:40:38.682Z,119.30
2018-02-16T02:43:07.484Z,120.97
2018-02-16T02:45:35.405Z,179.37
2018-02-16T02:48:04.541Z,130.52
2018-02-16T02:50:32.292Z,168.73
2018-02-16T02:52:59.969Z,340.70
2018-02-16T02:55:28.390Z,414.93
2018-02-16T02:57:59.718Z,438.67
2018-02-16T03:00:27.494Z,343.83
2018-02-16T03:02:55.686Z,271.17
2018-02-16T03:05:23.286Z,230.53
2018-02-16T03:07:51.101Z,363.47
2018-02-16T03:10:18.852Z,107.53
2018-02-16T03:12:47.266Z,252.80
2018-02-16T03:15:15.809Z,143.77
2018-02-16T03:17:44.324Z,147.73
2018-02-16T03:20:13.031Z,105.93
2018-02-16T03:22:40.603Z,159.57
2018-02-16T03:25:08.651Z,87.63
2018-02-16T03:27:36.237Z,166.20
2018-02-16T03:30:04.970Z,108.55
2018-02-16T03:32:33.320Z,76.47
2018-02-16T03:35:02.012Z,155.57
2018-02-16T03:37:30.337Z,84.13
2018-02-16T03:39:58.095Z,96.53
2018-02-16T03:42:26.231Z,91.67
2018-02-16T03:44:55.054Z,111.10
2018-02-16T03:47:23.360Z,83.00
2018-02-16T03:49:50.976Z,73.62
2018-02-16T03:52:19.662Z,86.07
2018-02-16T03:54:47.212Z,63.03
2018-02-16T03:57:15.223Z,110.33
2018-02-16T03:59:43.485Z,58.83
2018-02-16T04:02:12.606Z,85.82
2018-02-16T04:04:40.168Z,99.07
2018-02-16T04:07:09.248Z,90.07
2018-02-16T04:09:36.866Z,96.33
2018-02-16T04:12:05.484Z,115.15
2018-02-16T04:14:33.873Z,140.77
2018-02-16T04:17:02.328Z,79.27
2018-02-16T04:19:29.967Z,62.13
2018-02-16T04:21:59.757Z,68.60
2018-02-16T04:24:29.593Z,72.03
2018-02-16T04:26:57.452Z,91.03
2018-02-16T04:29:26.046Z,62.67
2018-02-16T04:31:54.145Z,84.53
2018-02-16T04:34:22.428Z,76.87
2018-02-16T04:36:50.061Z,111.47
2018-02-16T04:39:17.660Z,72.57
2018-02-16T04:41:45.498Z,88.07
2018-02-16T04:44:13.888Z,78.87
2018-02-16T04:46:41.952Z,88.67
2018-02-16T04:49:10.529Z,68.53
2018-02-16T04:51:39.348Z,54.47
2018-02-16T04:54:07.123Z,60.10
2018-02-16T04:56:34.904Z,53.43
2018-02-16T04:59:03.394Z,66.60
2018-02-16T05:01:30.938Z,111.83
2018-02-16T05:04:07.759Z,63.65
2018-02-16T05:06:35.956Z,52.13
2018-02-16T05:09:04.196Z,116.07
2018-02-16T05:11:34.012Z,94.97
2018-02-16T05:14:01.977Z,103.40
2018-02-16T05:16:30.860Z,407.35
2018-02-16T05:18:58.660Z,265.83
2018-02-16T05:21:26.209Z,130.30
2018-02-16T05:23:55.428Z,195.40
2018-02-16T05:26:23.775Z,142.80
2018-02-16T05:28:51.777Z,201.20
2018-02-16T05:31:20.163Z,132.57
2018-02-16T05:33:49.719Z,141.07
2018-02-16T05:36:18.619Z,117.30
2018-02-16T05:38:46.180Z,128.50
2018-02-16T05:41:14.467Z,112.90
2018-02-16T05:43:44.402Z,137.33
2018-02-16T05:46:13.421Z,70.13
2018-02-16T05:48:41.207Z,54.87
2018-02-16T05:51:08.741Z,84.18
2018-02-16T05:53:36.347Z,86.30
2018-02-16T05:56:04.582Z,82.30
2018-02-16T05:58:33.749Z,130.60
2018-02-16T06:01:01.341Z,129.77
2018-02-16T06:03:29.788Z,113.03
2018-02-16T06:05:57.612Z,96.53
2018-02-16T06:08:25.420Z,242.10
2018-02-16T06:10:52.954Z,192.40
2018-02-16T06:13:20.559Z,88.85
2018-02-16T06:15:49.567Z,117.87
2018-02-16T06:18:17.109Z,85.43
2018-02-16T06:20:46.073Z,139.90
2018-02-16T06:23:13.627Z,132.10
2018-02-16T06:25:41.666Z,155.43
2018-02-16T06:28:09.250Z,181.17
2018-02-16T06:30:36.879Z,211.68
2018-02-16T06:33:04.475Z,215.57
2018-02-16T06:35:32.437Z,129.97
2018-02-16T06:38:00.568Z,176.80
2018-02-16T06:40:28.212Z,77.28
2018-02-16T06:42:57.468Z,219.17
2018-02-16T06:45:25.458Z,213.20
2018-02-16T06:47:53.684Z,149.02
2018-02-16T06:50:21.266Z,185.27
2018-02-16T06:52:49.218Z,103.63
2018-02-16T06:55:16.794Z,178.90
2018-02-16T06:57:45.002Z,154.60
2018-02-16T07:00:13.244Z,66.43
2018-02-16T07:02:41.648Z,174.67
2018-02-16T07:05:10.070Z,110.00
2018-02-16T07:07:37.661Z,62.13
2018-02-16T07:10:05.269Z,72.87
2018-02-16T07:12:32.961Z,70.53
2018-02-16T07:15:00.605Z,108.57
2018-02-16T07:17:28.160Z,57.93
2018-02-16T07:19:55.813Z,34.83
2018-02-16T07:22:24.056Z,86.00
2018-02-16T07:24:51.999Z,101.13
2018-02-16T07:27:19.573Z,86.70
2018-02-16T07:29:47.536Z,73.03
2018-02-16T07:32:15.509Z,130.17
2018-02-16T07:34:43.506Z,166.63
2018-02-16T07:37:11.488Z,73.32
2018-02-16T07:39:39.132Z,127.97
2018-02-16T07:42:11.089Z,113.88
2018-02-16T07:44:41.004Z,151.85
2018-02-16T07:47:08.566Z,177.65
2018-02-16T07:49:36.744Z,100.57
2018-02-16T07:52:05.236Z,148.05
2018-02-16T07:54:32.813Z,78.77
2018-02-16T07:57:01.966Z,54.40
2018-02-16T07:59:29.529Z,104.22
2018-02-16T08:01:57.092Z,130.73
2018-02-16T08:04:24.647Z,90.62
2018-02-16T08:06:52.685Z,161.93
2018-02-16T08:09:20.273Z,64.87
2018-02-16T08:11:48.333Z,180.87
2018-02-16T08:14:15.841Z,76.83
2018-02-16T08:16:43.408Z,122.60
2018-02-16T08:19:10.948Z,120.20
2018-02-16T08:21:38.502Z,168.87
2018-02-16T08:24:06.303Z,257.93
2018-02-16T08:26:33.862Z,131.70
2018-02-16T08:29:01.584Z,115.93
2018-02-16T08:31:29.873Z,72.62
2018-02-16T08:33:57.510Z,162.37
2018-02-16T08:36:25.487Z,143.20
2018-02-16T08:38:53.515Z,156.83
2018-02-16T08:41:21.061Z,91.53
2018-02-16T08:43:48.628Z,49.17
2018-02-16T08:46:16.176Z,122.43
2018-02-16T08:48:43.753Z,80.07
2018-02-16T08:51:11.279Z,54.03
2018-02-16T08:53:38.816Z,98.57
2018-02-16T08:56:06.376Z,99.57
2018-02-16T08:58:33.964Z,51.47
2018-02-16T09:01:01.656Z,63.00
2018-02-16T09:03:29.375Z,253.67
2018-02-16T09:05:56.976Z,89.67
2018-02-16T09:08:24.597Z,102.10
2018-02-16T09:10:52.155Z,123.33
2018-02-16T09:13:19.688Z,45.78
2018-02-16T09:15:47.910Z,103.22
2018-02-16T09:18:15.493Z,90.53
2018-02-16T09:20:43.456Z,76.30
2018-02-16T09:23:10.997Z,132.33
2018-02-16T09:25:38.556Z,90.23
2018-02-16T09:28:06.131Z,137.63
2018-02-16T09:30:34.066Z,133.33
2018-02-16T09:33:01.606Z,53.63
2018-02-16T09:35:30.742Z,69.33
2018-02-16T09:37:58.300Z,84.47
2018-02-16T09:40:26.025Z,35.63
2018-02-16T09:42:53.598Z,95.38
2018-02-16T09:45:21.875Z,53.50
2018-02-16T09:47:49.429Z,115.23
2018-02-16T09:50:17.373Z,68.23
2018-02-16T09:52:45.315Z,75.13
2018-02-16T09:55:12.844Z,52.10
2018-02-16T09:57:40.389Z,83.23
2018-02-16T10:00:07.973Z,50.75
2018-02-16T10:02:35.562Z,126.22
2018-02-16T10:05:03.097Z,63.90
2018-02-16T10:07:30.669Z,120.97
2018-02-16T10:09:58.224Z,102.73
2018-02-16T10:12:25.780Z,51.72
2018-02-16T10:14:53.354Z,64.53
2018-02-16T10:17:20.919Z,151.23
2018-02-16T10:19:49.204Z,137.07
2018-02-16T10:22:17.179Z,74.60
2018-02-16T10:24:44.732Z,81.70
2018-02-16T10:27:13.288Z,68.07
2018-02-16T10:29:40.849Z,67.77
2018-02-16T10:32:08.407Z,49.20
2018-02-16T10:34:35.966Z,52.20
2018-02-16T10:37:04.421Z,133.53
2018-02-16T10:39:31.961Z,107.07
2018-02-16T10:41:59.525Z,96.65
2018-02-16T10:44:27.293Z,46.90
2018-02-16T10:46:54.898Z,39.73
2018-02-16T10:49:22.494Z,48.23
2018-02-16T10:51:50.024Z,49.37
2018-02-16T10:54:17.990Z,110.90
2018-02-16T10:56:45.542Z,79.77
2018-02-16T10:59:13.118Z,79.87
2018-02-16T11:01:43.979Z,93.20
2018-02-16T11:04:17.061Z,125.22
2018-02-16T11:06:49.057Z,223.23
2018-02-16T11:09:21.430Z,97.32
2018-02-16T11:11:49.829Z,122.40
2018-02-16T11:14:17.410Z,66.60
2018-02-16T11:16:44.982Z,65.65
2018-02-16T11:19:13.342Z,87.50
2018-02-16T11:21:40.889Z,76.33
2018-02-16T11:24:08.461Z,82.45
2018-02-16T11:26:36.013Z,85.37
2018-02-16T11:29:03.568Z,63.10
2018-02-16T11:31:31.169Z,62.20
2018-02-16T11:33:59.125Z,136.23
2018-02-16T11:36:27.064Z,58.60
2018-02-16T11:38:54.806Z,69.83
2018-02-16T11:41:22.363Z,70.53
2018-02-16T11:43:50.738Z,56.73
2018-02-16T11:46:18.290Z,63.73
2018-02-16T11:48:45.866Z,58.20
2018-02-16T11:51:13.411Z,62.23
2018-02-16T11:53:40.968Z,57.30
2018-02-16T11:56:08.531Z,73.13
2018-02-16T11:58:36.085Z,51.70
2018-02-16T12:01:03.659Z,53.15
2018-02-16T12:03:31.187Z,56.28
2018-02-16T12:05:58.811Z,64.57
2018-02-16T12:08:26.337Z,56.60
2018-02-16T12:10:53.880Z,51.13
2018-02-16T17:58:09.387Z,17.97
2018-02-16T18:00:37.369Z,24.60
2018-02-16T18:03:05.052Z,39.05
2018-02-16T18:05:33.202Z,32.60
2018-02-16T18:08:01.183Z,26.63
2018-02-16T18:10:28.815Z,20.27
2018-02-16T18:12:56.923Z,35.83
2018-02-16T18:15:25.768Z,41.70
2018-02-16T18:17:54.065Z,41.05
2018-02-16T18:20:21.721Z,52.10
2018-02-16T18:22:51.344Z,52.43
2018-02-16T18:25:18.988Z,66.80
2018-02-16T18:27:46.975Z,58.08
2018-02-16T18:30:14.984Z,48.33
2018-02-16T18:32:42.588Z,32.63
2018-02-16T18:35:10.547Z,34.67
2018-02-16T18:37:38.159Z,26.87
2018-02-16T18:40:05.769Z,35.42
2018-02-16T18:42:33.377Z,44.50
2018-02-16T18:45:00.976Z,65.93
2018-02-16T18:47:28.521Z,88.43
2018-02-16T18:49:56.106Z,83.50
2018-02-16T18:52:24.141Z,129.15
2018-02-16T18:54:51.708Z,73.23
2018-02-16T18:57:19.280Z,74.00
2018-02-16T18:59:46.849Z,50.93
2018-02-16T19:02:20.854Z,64.33
2018-02-16T19:04:48.853Z,57.10
2018-02-16T19:07:16.416Z,69.27
2018-02-16T19:09:44.027Z,69.40
2018-02-16T19:12:12.546Z,96.17
2018-02-16T19:14:40.502Z,75.70
2018-02-16T19:17:08.233Z,85.33
2018-02-16T19:19:36.688Z,66.07
2018-02-16T19:22:04.245Z,60.87
2018-02-16T19:24:31.816Z,54.07
2018-02-16T19:26:59.398Z,49.65
2018-02-16T19:29:27.045Z,56.80
2018-02-16T19:31:54.682Z,62.38
2018-02-16T19:34:22.420Z,61.57
2018-02-16T19:36:50.166Z,67.60
2018-02-16T19:39:18.202Z,75.10
2018-02-16T19:41:46.027Z,88.30
2018-02-16T19:44:14.562Z,84.78
2018-02-16T19:46:42.156Z,82.50
2018-02-16T19:49:09.721Z,72.78
2018-02-16T19:51:37.823Z,82.50
2018-02-16T19:54:08.503Z,81.60
2018-02-16T19:56:36.159Z,63.83
2018-02-16T19:59:03.951Z,56.88
2018-02-16T20:01:31.937Z,57.50
2018-02-16T20:03:59.820Z,56.70
2018-02-16T20:06:27.684Z,54.13
2018-02-16T20:08:56.715Z,62.65
2018-02-16T20:11:24.457Z,71.37
2018-02-16T20:13:52.294Z,62.33
2018-02-16T20:16:19.921Z,69.05
2018-02-16T20:18:49.363Z,60.00
2018-02-16T20:21:17.047Z,64.17
2018-02-16T20:23:44.625Z,63.38
2018-02-16T20:26:13.021Z,59.80
2018-02-16T20:28:41.276Z,62.70
2018-02-16T20:31:09.181Z,46.55
2018-02-16T20:33:37.255Z,50.57
2018-02-16T20:36:05.081Z,53.22
2018-02-16T20:38:32.678Z,41.60
2018-02-16T20:41:01.530Z,43.17
2018-02-16T20:43:29.163Z,57.57
2018-02-16T20:45:56.860Z,74.97
2018-02-16T20:48:24.485Z,81.80
2018-02-16T20:50:52.169Z,64.83
2018-02-16T20:53:20.519Z,58.57
2018-02-16T20:55:49.062Z,60.95
2018-02-16T20:58:17.740Z,73.90
2018-02-16T21:00:45.424Z,66.77
2018-02-16T21:03:13.280Z,74.40
2018-02-16T21:05:41.250Z,76.60
2018-02-16T21:08:08.873Z,64.17
2018-02-16T21:10:45.736Z,54.13
2018-02-16T21:13:13.338Z,52.10
2018-02-16T21:15:40.902Z,58.90
2018-02-16T21:18:08.657Z,80.07
2018-02-16T21:20:36.376Z,54.53
2018-02-16T21:23:03.985Z,59.95
2018-02-16T21:25:35.637Z,47.60
2018-02-16T21:28:04.385Z,50.67
2018-02-16T21:30:32.073Z,49.78
2018-02-16T21:33:00.610Z,47.60
2018-02-16T21:35:28.148Z,50.57
2018-02-16T21:37:55.715Z,47.80
2018-02-16T21:40:35.221Z,47.77
2018-02-16T21:43:06.534Z,45.67
2018-02-16T21:45:34.149Z,45.03
2018-02-16T21:48:02.522Z,42.50
2018-02-16T21:50:30.181Z,42.03
2018-02-16T21:52:57.745Z,43.27
2018-02-16T21:55:25.366Z,40.60
2018-02-16T21:57:53.310Z,58.73
2018-02-16T22:00:20.916Z,51.23
2018-02-16T22:02:48.569Z,40.00
2018-02-16T22:05:17.220Z,47.75
2018-02-16T22:07:45.134Z,39.92
2018-02-16T22:10:12.727Z,44.87
2018-02-16T22:12:40.313Z,50.55
2018-02-16T22:15:07.940Z,52.73
2018-02-16T22:17:35.592Z,45.33
2018-02-16T22:20:03.215Z,46.08
2018-02-16T22:22:31.298Z,43.20
2018-02-16T22:24:58.856Z,36.33
2018-02-16T22:27:26.486Z,45.25
2018-02-16T22:29:54.050Z,43.87
2018-02-16T22:32:21.710Z,52.57
2018-02-16T22:34:49.835Z,53.13
2018-02-16T22:37:17.452Z,50.57
2018-02-16T22:39:45.023Z,52.40
2018-02-16T22:42:12.609Z,57.33
2018-02-16T22:44:40.184Z,51.57
2018-02-16T22:47:07.782Z,58.22
2018-02-16T22:49:35.377Z,64.87
2018-02-16T22:52:02.929Z,57.40
2018-02-16T22:54:30.991Z,52.43
2018-02-16T22:56:59.556Z,61.22
2018-02-16T22:59:27.120Z,56.50
2018-02-16T23:01:54.679Z,60.17
2018-02-16T23:04:22.327Z,51.80
2018-02-16T23:06:49.973Z,50.55
2018-02-16T23:09:18.529Z,53.07
2018-02-16T23:11:46.359Z,54.93
2018-02-16T23:14:13.968Z,45.00
2018-02-16T23:16:42.222Z,58.87
2018-02-16T23:19:10.697Z,37.37
2018-02-16T23:21:38.245Z,51.07
2018-02-16T23:24:05.857Z,48.47
2018-02-16T23:26:33.774Z,48.57
2018-02-16T23:29:01.375Z,40.87
2018-02-16T23:31:33.398Z,44.67
2018-02-16T23:34:01.206Z,47.60
2018-02-16T23:36:29.162Z,59.60
2018-02-16T23:38:56.713Z,59.40
2018-02-16T23:41:24.292Z,63.90
2018-02-16T23:43:51.842Z,72.37
2018-02-16T23:46:19.380Z,56.03
2018-02-16T23:48:47.123Z,51.63
2018-02-16T23:51:15.722Z,58.30
2018-02-16T23:53:44.298Z,53.67
2018-02-16T23:56:11.993Z,55.17
2018-02-16T23:58:41.145Z,50.96
